RJSSRJSK

Guest
Details From RJSS - SENDAI
To RJSK - AKITA
Flight Number -
Tags generated
Created
Modified
Stats Distance 95 nm / 175 km
Max Altitude 8,400 ft / 2,560 m
Waypoints 3
Social Downloads 0
Likes 0
Share VATSIM

Download

Looking for another format? Having issues loading an existing format? Contact us
Advertisement - Login to hide

Notes

Basic altitude profile: - Ascent Rate: 2500ft/min - Ascent Speed: 250kts - Cruise Altitude: 35000ft - Cruise Speed: 420kts - Descent Rate: 1500ft/min - Descent Speed: 250kts Options: - Use NATs: yes - Use PACOTS: yes - Use low airways: yes - Use high airways: yes

Route

RJSS HANKA RJSK

ID Type Via Altitude Latitude Longitude Leg Dist Tot Dist Heading (true) Name
O RJSS APT - 0 ft / 0 m 38.13873˚ 140.91825˚ - 0 nm - SENDAI
HANKA FIX - 8,400 ft / 2,560 m 39.01832˚ 140.56133˚ 55 nm 55 nm 343° / 342° -
O RJSK APT - 0 ft / 0 m 39.61564˚ 140.21867˚ 39 nm 94 nm 336° / 336° AKITA

Altitude Profile

Advertisement - Login to hide

RJSS

Details ICAO RJSS (SDJ)
Name SENDAI
Region Japan
Timezone Asia/Tokyo (UTC+9.0)
Stats Elevation 15 ft / 5 m (AMSL)
Location 38.138734° 140.918248°
Runways 2
Magnetic Variation 8.082° W

METAR

RJSS 172100Z VRB02KT 9999 FEW020 BKN050 M02/M03 Q1022

Decode

TAF

TAF RJSS 171705Z 1718/1900 23005KT 9999 FEW020 BKN050

Decode

Departure Runways

ID Width Length Bearing (true) Bearing (mag) Surface Threshold Offset Overrun Length
09 150 ft / 46 m 9,823 ft / 2,994 m 82.52° 90.60° Asphalt 0 ft / 0 m 200 ft / 61 m
12 150 ft / 46 m 3,932 ft / 1,199 m 117.79° 125.87° Asphalt 0 ft / 0 m 0 ft / 0 m
27 150 ft / 46 m 9,823 ft / 2,994 m 262.54° 270.62° Asphalt 0 ft / 0 m 200 ft / 61 m
30 150 ft / 46 m 3,932 ft / 1,199 m 297.80° 305.88° Asphalt 0 ft / 0 m 0 ft / 0 m

RJSK

Details ICAO RJSK (AXT)
Name AKITA
Region Japan
Timezone Asia/Tokyo (UTC+9.0)
Stats Elevation 313 ft / 95 m (AMSL)
Location 39.615645° 140.218665°
Runways 1
Magnetic Variation 8.666° W

METAR

Not found

TAF

TAF RJSK 171718Z 1718/1900 30008KT 8000 -SHSN FEW010 BKN020 BKN030 TEMPO 1718/1800 1500 -SHSN FEW005 BKN008 BKN015 BECMG 1804/1806 14004KT 3000 -SHSN BR FEW005 BKN008 BKN015 TEMPO 1806/1812 0700 SHSN FG FEW001 BKN003 BKN006 TEMPO 1812/1818 0700 TSSNRAGS FG FEW001 BKN003 BKN006 FEW020CB TEMPO 1818/1900 0700 SHRASN FG FEW001 BKN003 BKN006

Decode

Destination Runways

ID Width Length Bearing (true) Bearing (mag) Surface Threshold Offset Overrun Length
10 200 ft / 61 m 8,184 ft / 2,495 m 96.62° 105.29° Asphalt 0 ft / 0 m 200 ft / 61 m
28 200 ft / 61 m 8,184 ft / 2,495 m 276.64° 285.31° Asphalt 0 ft / 0 m 200 ft / 61 m

Approach Navaids

Runway Type Ident Frequency Range Bearing (true) Bearing (mag) Slope Elevation
28 Localiser IUW 108.90 MHz 18 nm / 33 km 276.62° 285.29° - 286 ft / 87 m (AMSL)
28 Glidescope IUW 108.90 MHz 10 nm / 19 km 276.63° 285.30° 3.00° 300 ft / 91 m (AMSL)
28 DME IUW 108.90 MHz 18 nm / 33 km - - - 328 ft / 100 m (AMSL)